createdAt,value
2023-04-19T00:02:23.966Z,3.50
2023-04-19T00:04:51.548Z,3.22
2023-04-19T00:07:20.425Z,2.97
2023-04-19T00:09:47.671Z,3.13
2023-04-19T00:12:15.002Z,3.80
2023-04-19T00:14:42.384Z,3.22
2023-04-19T00:17:11.334Z,3.30
2023-04-19T00:19:39.224Z,3.75
2023-04-19T00:22:06.871Z,2.95
2023-04-19T00:24:34.176Z,3.38
2023-04-19T00:27:02.340Z,3.25
2023-04-19T00:29:29.943Z,3.28
2023-04-19T00:31:57.213Z,3.42
2023-04-19T00:34:24.495Z,3.95
2023-04-19T00:36:51.764Z,3.65
2023-04-19T00:39:19.089Z,3.15
2023-04-19T00:41:46.425Z,3.30
2023-04-19T00:44:14.072Z,2.83
2023-04-19T00:46:42.565Z,3.45
2023-04-19T00:49:10.009Z,3.10
2023-04-19T00:51:37.266Z,3.17
2023-04-19T00:54:04.554Z,4.35
2023-04-19T00:56:31.832Z,3.75
2023-04-19T00:58:59.037Z,3.53
2023-04-19T01:01:26.256Z,3.05
2023-04-19T01:03:53.600Z,3.60
2023-04-19T01:06:21.086Z,3.80
2023-04-19T01:08:48.389Z,3.67
2023-04-19T01:11:15.770Z,3.58
2023-04-19T01:13:43.003Z,3.92
2023-04-19T01:16:10.255Z,3.67
2023-04-19T01:18:39.455Z,3.40
2023-04-19T01:21:07.392Z,3.88
2023-04-19T01:23:35.493Z,3.60
2023-04-19T01:26:02.806Z,4.35
2023-04-19T01:28:30.185Z,3.60
2023-04-19T01:30:57.482Z,4.30
2023-04-19T01:33:24.717Z,4.20
2023-04-19T01:35:51.960Z,4.45
2023-04-19T01:38:19.645Z,3.65
2023-04-19T01:40:46.874Z,4.20
2023-04-19T01:43:16.050Z,4.22
2023-04-19T01:45:43.312Z,3.95
2023-04-19T01:48:10.747Z,4.22
2023-04-19T01:50:38.071Z,3.65
2023-04-19T01:53:05.406Z,4.57
2023-04-19T01:55:32.639Z,5.20
2023-04-19T01:57:59.826Z,4.80
2023-04-19T02:00:27.076Z,4.78
2023-04-19T02:02:54.497Z,4.72
2023-04-19T02:05:21.874Z,4.68
2023-04-19T02:07:49.313Z,4.70
2023-04-19T02:10:16.573Z,4.65
2023-04-19T02:12:43.926Z,5.22
2023-04-19T02:15:11.482Z,4.68
2023-04-19T02:17:39.040Z,5.07
2023-04-19T02:20:08.576Z,4.45
2023-04-19T02:22:35.950Z,4.72
2023-04-19T02:25:03.322Z,4.53
2023-04-19T02:27:30.869Z,4.07
2023-04-19T02:29:58.134Z,4.18
2023-04-19T02:32:25.395Z,3.95
2023-04-19T02:34:52.637Z,4.47
2023-04-19T02:37:19.900Z,4.35
2023-04-19T02:39:47.203Z,4.15
2023-04-19T02:42:14.398Z,4.45
2023-04-19T02:44:41.651Z,4.55
2023-04-19T02:47:08.917Z,3.45
2023-04-19T02:49:38.033Z,4.05
2023-04-19T02:52:05.440Z,4.68
2023-04-19T02:54:33.791Z,4.07
2023-04-19T02:57:01.175Z,4.72
2023-04-19T02:59:28.395Z,4.35
2023-04-19T03:01:55.806Z,4.30
2023-04-19T03:04:23.144Z,4.55
2023-04-19T03:06:50.759Z,4.35
2023-04-19T03:09:18.376Z,4.30
2023-04-19T03:11:45.610Z,4.50
2023-04-19T03:14:12.900Z,4.65
2023-04-19T03:16:40.168Z,3.88
2023-04-19T03:19:07.482Z,3.97
2023-04-19T03:21:35.741Z,3.92
2023-04-19T03:24:03.047Z,4.22
2023-04-19T03:26:30.655Z,3.67
2023-04-19T03:28:58.195Z,4.25
2023-04-19T03:31:25.652Z,4.25
2023-04-19T03:33:53.155Z,3.55
2023-04-19T03:36:21.577Z,4.07
2023-04-19T03:38:48.811Z,4.43
2023-04-19T03:41:26.813Z,4.20
2023-04-19T03:43:54.032Z,3.67
2023-04-19T03:46:21.498Z,4.00
2023-04-19T03:48:48.788Z,3.95
2023-04-19T03:51:16.817Z,4.63
2023-04-19T03:53:44.155Z,5.20
2023-04-19T03:56:11.371Z,4.15
2023-04-19T03:58:39.687Z,4.90
2023-04-19T04:01:08.975Z,4.32
2023-04-19T04:03:36.730Z,4.10
2023-04-19T04:06:04.223Z,4.75
2023-04-19T04:08:31.779Z,4.80
2023-04-19T04:10:59.047Z,4.95
2023-04-19T04:13:26.399Z,4.05
2023-04-19T04:15:53.696Z,4.28
2023-04-19T04:18:21.040Z,4.15
2023-04-19T04:20:48.295Z,4.57
2023-04-19T04:23:16.503Z,4.78
2023-04-19T04:25:43.742Z,3.45
2023-04-19T04:28:11.153Z,4.90
2023-04-19T04:30:38.626Z,4.75
2023-04-19T04:33:05.922Z,5.10
2023-04-19T04:35:33.781Z,5.75
2023-04-19T04:38:01.971Z,4.15
2023-04-19T04:40:32.018Z,4.22
2023-04-19T04:43:00.955Z,4.82
2023-04-19T04:45:29.550Z,5.90
2023-04-19T04:47:56.849Z,5.07
2023-04-19T04:50:24.130Z,4.50
2023-04-19T04:52:53.737Z,4.90
2023-04-19T04:55:21.026Z,5.10
2023-04-19T04:57:48.329Z,5.15
2023-04-19T05:00:15.862Z,5.30
2023-04-19T05:02:43.306Z,5.53
2023-04-19T05:05:13.465Z,6.65
2023-04-19T05:07:41.149Z,5.70
2023-04-19T05:10:08.678Z,5.18
2023-04-19T05:12:37.775Z,6.63
2023-04-19T05:15:05.462Z,5.63
2023-04-19T05:17:32.917Z,5.72
2023-04-19T05:20:00.225Z,5.32
2023-04-19T05:22:27.561Z,5.78
2023-04-19T05:24:55.186Z,5.35
2023-04-19T05:27:22.440Z,5.07
2023-04-19T05:29:51.437Z,4.53
2023-04-19T05:32:18.677Z,5.40
2023-04-19T05:34:46.064Z,5.95
2023-04-19T05:37:13.336Z,4.38
2023-04-19T05:39:42.348Z,5.38
2023-04-19T05:42:11.332Z,5.03
2023-04-19T05:44:38.568Z,4.85
2023-04-19T05:47:05.843Z,4.05
2023-04-19T05:49:33.232Z,5.97
2023-04-19T05:52:00.620Z,4.18
2023-04-19T05:54:28.561Z,4.55
2023-04-19T05:56:56.310Z,4.60
2023-04-19T05:59:23.696Z,4.38
2023-04-19T06:01:51.089Z,4.40
2023-04-19T06:04:18.646Z,4.20
2023-04-19T06:06:47.887Z,3.97
2023-04-19T06:09:15.379Z,4.88
2023-04-19T06:11:49.954Z,4.10
2023-04-19T06:14:18.632Z,4.55
2023-04-19T06:16:46.576Z,4.35
2023-04-19T06:19:13.949Z,3.95
2023-04-19T06:21:41.239Z,3.35
2023-04-19T06:24:08.568Z,4.63
2023-04-19T06:26:35.853Z,4.00
2023-04-19T06:29:03.163Z,4.00
2023-04-19T06:31:30.671Z,3.42
2023-04-19T06:33:57.932Z,5.22
2023-04-19T06:36:25.597Z,4.15
2023-04-19T06:38:52.832Z,4.18
2023-04-19T06:41:20.079Z,3.88
2023-04-19T06:43:47.341Z,4.53
2023-04-19T06:46:14.643Z,4.25
2023-04-19T06:48:42.010Z,4.13
2023-04-19T06:51:09.539Z,3.97
2023-04-19T06:53:37.989Z,3.70
2023-04-19T06:56:05.793Z,3.85
2023-04-19T06:58:34.834Z,2.97
2023-04-19T07:01:06.283Z,3.90
2023-04-19T07:03:33.913Z,3.85
2023-04-19T07:06:01.572Z,3.78
2023-04-19T07:08:42.481Z,4.72
2023-04-19T07:11:16.308Z,3.53
2023-04-19T07:13:43.655Z,4.25
2023-04-19T07:16:11.305Z,4.72
2023-04-19T07:18:38.727Z,3.58
2023-04-19T07:21:06.133Z,4.18
2023-04-19T07:23:33.516Z,3.15
2023-04-19T07:26:00.748Z,4.15
2023-04-19T07:28:31.251Z,4.70
2023-04-19T07:30:58.488Z,4.83
2023-04-19T07:33:28.128Z,5.75
2023-04-19T07:35:56.709Z,5.78
2023-04-19T07:38:24.911Z,5.65
2023-04-19T07:40:52.258Z,4.07
2023-04-19T07:43:19.593Z,3.05
2023-04-19T07:45:46.812Z,3.60
2023-04-19T07:48:14.511Z,2.78
2023-04-19T07:50:41.838Z,3.97
2023-04-19T07:53:09.457Z,4.30
2023-04-19T07:55:36.809Z,4.15
2023-04-19T07:58:05.795Z,4.57
2023-04-19T08:00:36.664Z,4.32
2023-04-19T08:03:04.281Z,3.97
2023-04-19T08:05:32.903Z,3.38
2023-04-19T08:08:00.346Z,3.42
2023-04-19T08:10:29.010Z,5.13
2023-04-19T08:13:04.267Z,3.88
2023-04-19T08:18:05.149Z,4.35
2023-04-19T08:20:33.477Z,3.85
2023-04-19T08:23:07.576Z,4.65
2023-04-19T08:25:41.622Z,5.60
2023-04-19T08:28:08.862Z,3.65
2023-04-19T08:30:36.365Z,5.03
2023-04-19T08:33:03.815Z,6.63
2023-04-19T08:35:31.130Z,5.53
2023-04-19T08:37:58.415Z,6.20
2023-04-19T08:40:25.808Z,5.50
2023-04-19T08:42:53.040Z,6.80
2023-04-19T08:45:26.844Z,8.38
2023-04-19T08:48:01.191Z,7.75
2023-04-19T08:50:36.113Z,5.53
2023-04-19T08:56:03.514Z,3.80
2023-04-19T08:58:52.090Z,4.57
2023-04-19T09:01:33.615Z,7.18
2023-04-19T09:04:16.892Z,3.85
2023-04-19T09:06:48.735Z,6.13
2023-04-19T09:09:33.399Z,4.32
2023-04-19T09:12:02.554Z,4.85
2023-04-19T09:14:30.135Z,5.25
2023-04-19T09:17:16.428Z,6.18
2023-04-19T09:19:48.161Z,4.75
2023-04-19T09:22:15.760Z,5.03
2023-04-19T09:27:15.789Z,9.60
2023-04-19T09:29:44.199Z,7.75
2023-04-19T09:32:12.270Z,3.55
2023-04-19T09:34:51.084Z,5.78
2023-04-19T09:37:38.489Z,6.55
2023-04-19T09:40:24.779Z,8.77
2023-04-19T09:48:08.254Z,7.53
2023-04-19T09:50:50.494Z,9.98
2023-04-19T09:53:21.745Z,4.35
2023-04-19T09:56:00.539Z,8.52
2023-04-19T09:58:41.721Z,8.10
2023-04-19T10:01:16.292Z,14.10
2023-04-19T10:03:49.109Z,10.45
2023-04-19T10:08:50.200Z,5.10
2023-04-19T10:11:18.902Z,5.43
2023-04-19T10:13:46.242Z,4.55
2023-04-19T10:16:19.595Z,6.20
2023-04-19T10:18:52.381Z,4.60
2023-04-19T10:21:19.682Z,4.85
2023-04-19T10:23:46.927Z,9.65
2023-04-19T10:26:14.192Z,7.05
2023-04-19T10:28:42.109Z,6.68
2023-04-19T10:31:11.932Z,11.30
2023-04-19T10:33:39.468Z,13.15
2023-04-19T10:36:11.124Z,10.10
2023-04-19T10:38:45.698Z,8.38
2023-04-19T10:41:16.974Z,9.98
2023-04-19T10:43:48.441Z,11.40
2023-04-19T10:46:21.825Z,6.13
2023-04-19T10:48:59.306Z,9.00
2023-04-19T10:51:33.183Z,7.32
2023-04-19T10:54:07.839Z,8.48
2023-04-19T10:56:35.628Z,5.93
2023-04-19T10:59:08.257Z,5.63
2023-04-19T11:01:40.883Z,4.72
2023-04-19T11:04:19.178Z,11.98
2023-04-19T11:06:52.862Z,11.75
2023-04-19T11:09:34.333Z,11.75
2023-04-19T11:12:08.398Z,4.57
2023-04-19T11:14:37.611Z,6.03
2023-04-19T11:17:18.028Z,3.78
2023-04-19T11:19:52.772Z,5.05
2023-04-19T11:22:31.523Z,11.38
2023-04-19T11:25:19.041Z,5.15
2023-04-19T11:27:48.025Z,8.02
2023-04-19T11:30:21.204Z,7.43
2023-04-19T11:32:57.712Z,7.70
2023-04-19T11:35:28.757Z,10.40
2023-04-19T11:37:56.725Z,6.55
2023-04-19T11:40:25.973Z,12.20
2023-04-19T11:42:58.139Z,9.35
2023-04-19T11:45:29.830Z,7.63
2023-04-19T11:47:58.972Z,9.23
2023-04-19T11:50:39.229Z,6.47
2023-04-19T11:53:10.256Z,8.70
2023-04-19T11:55:37.750Z,7.45
2023-04-19T11:58:09.795Z,9.38
2023-04-19T12:00:37.338Z,6.30
2023-04-19T12:03:04.943Z,4.47
2023-04-19T12:05:32.688Z,10.63
2023-04-19T12:08:01.212Z,6.43
2023-04-19T12:10:28.502Z,11.90
2023-04-19T12:12:56.017Z,16.27
2023-04-19T12:15:25.878Z,6.35
2023-04-19T12:18:02.084Z,8.05
2023-04-19T12:20:30.530Z,5.80
2023-04-19T12:22:57.850Z,7.38
2023-04-19T12:25:31.956Z,6.43
2023-04-19T12:27:59.920Z,8.55
2023-04-19T12:30:27.518Z,6.60
2023-04-19T12:32:55.766Z,5.85
2023-04-19T12:35:25.625Z,8.55
2023-04-19T12:37:53.410Z,11.07
2023-04-19T12:40:20.828Z,8.88
2023-04-19T12:42:48.589Z,5.82
2023-04-19T12:45:15.989Z,7.32
2023-04-19T12:47:43.812Z,4.32
2023-04-19T12:50:12.104Z,6.97
2023-04-19T12:52:39.825Z,8.35
2023-04-19T12:55:07.421Z,8.00
2023-04-19T12:57:35.160Z,4.47
2023-04-19T13:00:02.386Z,6.53
2023-04-19T13:02:30.078Z,6.53
2023-04-19T13:04:57.616Z,5.57
2023-04-19T13:07:24.915Z,6.28
2023-04-19T13:09:52.427Z,4.28
2023-04-19T13:12:20.775Z,4.03
2023-04-19T13:14:51.495Z,4.53
2023-04-19T13:17:19.826Z,4.43
2023-04-19T13:19:47.582Z,3.83
2023-04-19T13:22:15.625Z,4.03
2023-04-19T13:24:42.957Z,4.55
2023-04-19T13:27:10.423Z,3.60
2023-04-19T13:29:37.728Z,4.50
2023-04-19T13:32:12.346Z,4.25
2023-04-19T13:34:42.494Z,3.75
2023-04-19T13:37:09.729Z,3.97
2023-04-19T13:39:37.036Z,4.60
2023-04-19T13:42:04.458Z,4.07
2023-04-19T13:44:32.057Z,4.55
2023-04-19T13:47:00.489Z,3.75
2023-04-19T13:49:27.897Z,4.57
2023-04-19T13:51:55.245Z,4.47
2023-04-19T13:54:22.455Z,4.13
2023-04-19T13:56:51.990Z,4.22
2023-04-19T13:59:19.721Z,4.45
2023-04-19T14:01:47.045Z,4.82
2023-04-19T14:04:14.801Z,3.97
2023-04-19T14:06:42.793Z,4.43
2023-04-19T14:09:10.033Z,4.40
2023-04-19T14:11:38.410Z,4.35
2023-04-19T14:14:05.632Z,4.38
2023-04-19T14:16:32.889Z,3.83
2023-04-19T14:19:01.031Z,4.32
2023-04-19T14:21:28.898Z,3.80
2023-04-19T14:23:56.162Z,5.20
2023-04-19T14:26:24.292Z,4.60
2023-04-19T14:28:52.582Z,4.80
2023-04-19T14:31:19.865Z,4.05
2023-04-19T14:33:47.190Z,3.55
2023-04-19T14:36:15.448Z,4.75
2023-04-19T14:38:42.674Z,3.97
2023-04-19T14:41:09.876Z,4.63
2023-04-19T14:43:37.532Z,3.97
2023-04-19T14:46:04.897Z,4.38
2023-04-19T14:48:32.828Z,4.57
2023-04-19T14:51:00.049Z,3.78
2023-04-19T14:53:27.325Z,4.10
2023-04-19T14:55:54.651Z,4.20
2023-04-19T14:58:21.965Z,4.72
2023-04-19T15:00:49.174Z,3.28
2023-04-19T15:03:17.583Z,4.43
2023-04-19T15:05:45.199Z,3.80
2023-04-19T15:08:26.848Z,3.50
2023-04-19T15:10:57.259Z,3.90
2023-04-19T15:13:24.643Z,3.50
2023-04-19T15:15:51.949Z,4.78
2023-04-19T15:18:19.209Z,4.55
2023-04-19T15:20:46.529Z,3.47
2023-04-19T15:23:13.760Z,4.32
2023-04-19T15:25:41.614Z,4.63
2023-04-19T15:28:08.929Z,4.88
2023-04-19T15:30:36.230Z,4.70
2023-04-19T15:33:03.583Z,4.70
2023-04-19T15:35:32.130Z,4.88
2023-04-19T15:37:59.377Z,5.00
2023-04-19T15:40:28.368Z,4.80
2023-04-19T15:42:55.872Z,5.18
2023-04-19T15:45:23.094Z,4.05
2023-04-19T15:47:50.474Z,6.18
2023-04-19T15:50:17.708Z,4.35
2023-04-19T15:52:45.046Z,5.45
2023-04-19T15:55:12.266Z,4.68
2023-04-19T15:57:39.524Z,4.68
2023-04-19T16:00:09.486Z,4.72
2023-04-19T16:02:37.522Z,4.43
2023-04-19T16:05:06.150Z,4.47
2023-04-19T16:07:33.499Z,4.93
2023-04-19T16:10:00.716Z,4.55
2023-04-19T16:12:28.044Z,4.78
2023-04-19T16:14:55.347Z,4.65
2023-04-19T16:17:22.529Z,6.03
2023-04-19T16:19:49.795Z,4.55
2023-04-19T16:22:18.896Z,5.13
2023-04-19T16:24:46.557Z,4.80
2023-04-19T16:27:14.282Z,4.90
2023-04-19T16:29:41.545Z,4.88
2023-04-19T16:32:10.445Z,4.88
2023-04-19T16:34:38.054Z,4.97
2023-04-19T16:37:05.601Z,6.22
2023-04-19T16:39:32.911Z,5.40
2023-04-19T16:42:01.292Z,5.10
2023-04-19T16:44:28.990Z,5.20
2023-04-19T16:46:56.681Z,4.97
2023-04-19T16:49:25.457Z,4.70
2023-04-19T16:51:52.693Z,4.88
2023-04-19T16:54:19.928Z,4.45
2023-04-19T16:56:47.948Z,5.05
2023-04-19T16:59:15.553Z,4.57
2023-04-19T17:01:44.337Z,5.03
2023-04-19T17:04:11.806Z,4.00
2023-04-19T17:06:39.304Z,4.90
2023-04-19T17:09:07.764Z,5.30
2023-04-19T17:11:35.537Z,5.55
2023-04-19T17:14:02.904Z,4.38
2023-04-19T17:16:30.907Z,5.25
2023-04-19T17:18:58.143Z,5.05
2023-04-19T17:21:25.883Z,5.32
2023-04-19T17:23:53.147Z,4.47
2023-04-19T17:26:21.059Z,4.35
2023-04-19T17:28:48.420Z,4.85
2023-04-19T17:31:15.698Z,4.97
2023-04-19T17:33:42.968Z,5.32
2023-04-19T17:36:10.228Z,4.95
2023-04-19T17:38:37.498Z,4.38
2023-04-19T17:41:05.873Z,5.38
2023-04-19T17:43:33.193Z,4.38
2023-04-19T17:46:00.573Z,5.57
2023-04-19T17:48:27.927Z,4.75
2023-04-19T17:50:56.375Z,6.25
2023-04-19T17:53:23.560Z,5.07
2023-04-19T17:55:51.331Z,4.63
2023-04-19T17:58:19.081Z,3.78
2023-04-19T18:00:46.649Z,4.25
2023-04-19T18:03:14.475Z,4.45
2023-04-19T18:05:41.907Z,3.88
2023-04-19T18:08:09.750Z,4.32
2023-04-19T18:10:37.089Z,4.25
2023-04-19T18:13:04.468Z,4.30
2023-04-19T18:15:31.768Z,4.30
2023-04-19T18:17:59.040Z,5.03
2023-04-19T18:20:26.370Z,4.43
2023-04-19T18:22:53.647Z,4.32
2023-04-19T18:25:21.047Z,5.22
2023-04-19T18:27:48.504Z,4.30
2023-04-19T18:30:16.059Z,4.88
2023-04-19T18:32:44.091Z,4.75
2023-04-19T18:35:11.421Z,4.57
2023-04-19T18:37:39.329Z,3.83
2023-04-19T18:40:07.784Z,4.38
2023-04-19T18:42:35.177Z,4.35
2023-04-19T18:45:04.021Z,4.60
2023-04-19T18:47:31.759Z,6.40
2023-04-19T18:50:04.976Z,4.55
2023-04-19T18:52:34.550Z,5.68
2023-04-19T18:55:02.146Z,5.40
2023-04-19T18:57:34.197Z,4.88
2023-04-19T19:00:05.268Z,5.25
2023-04-19T19:02:34.457Z,5.32
2023-04-19T19:05:02.705Z,4.30
2023-04-19T19:10:03.582Z,4.53
2023-04-19T19:12:33.381Z,5.93
2023-04-19T19:15:00.705Z,4.55
2023-04-19T19:17:28.504Z,5.22
2023-04-19T19:19:55.827Z,5.05
2023-04-19T19:22:28.333Z,4.43
2023-04-19T19:24:56.648Z,5.40
2023-04-19T19:27:24.062Z,4.28
2023-04-19T19:29:51.296Z,5.10
2023-04-19T19:32:19.365Z,5.72
2023-04-19T19:37:18.216Z,5.00
2023-04-19T19:39:46.337Z,5.70
2023-04-19T19:42:16.512Z,5.63
2023-04-19T19:44:44.002Z,5.25
2023-04-19T19:47:11.422Z,5.25
2023-04-19T19:52:08.970Z,6.00
2023-04-19T19:54:37.006Z,5.50
2023-04-19T20:02:03.777Z,5.63
2023-04-19T20:04:35.002Z,5.72
2023-04-19T20:09:32.803Z,5.05
2023-04-19T20:12:00.338Z,5.22
2023-04-19T20:14:27.612Z,4.55
2023-04-19T20:16:55.000Z,4.75
2023-04-19T20:19:22.262Z,4.90
2023-04-19T20:21:49.499Z,4.75
2023-04-19T20:24:17.761Z,4.45
2023-04-19T20:26:45.058Z,4.05
2023-04-19T20:29:12.323Z,4.65
2023-04-19T20:31:39.552Z,4.93
2023-04-19T20:34:06.849Z,4.88
2023-04-19T20:36:34.549Z,4.32
2023-04-19T20:39:06.560Z,5.13
2023-04-19T20:41:34.099Z,4.82
2023-04-19T20:44:01.440Z,4.38
2023-04-19T20:46:28.906Z,5.03
2023-04-19T20:48:56.344Z,4.53
2023-04-19T20:51:23.564Z,5.20
2023-04-19T20:53:50.841Z,5.00
2023-04-19T20:56:18.067Z,4.50
2023-04-19T20:58:45.551Z,4.60
2023-04-19T21:01:17.142Z,5.30
2023-04-19T21:03:45.074Z,5.22
2023-04-19T21:06:12.869Z,4.85
2023-04-19T21:08:40.160Z,4.63
2023-04-19T21:11:08.755Z,4.63
2023-04-19T21:13:36.565Z,4.68
2023-04-19T21:16:04.476Z,5.30
2023-04-19T21:18:31.902Z,4.20
2023-04-19T21:20:59.103Z,5.50
2023-04-19T21:23:27.186Z,5.13
2023-04-19T21:25:54.408Z,4.78
2023-04-19T21:28:22.637Z,5.68
2023-04-19T21:30:51.212Z,5.45
2023-04-19T21:33:18.786Z,6.25
2023-04-19T21:35:46.035Z,5.10
2023-04-19T21:38:13.245Z,5.65
2023-04-19T21:40:40.690Z,5.05
2023-04-19T21:43:08.164Z,5.45
2023-04-19T21:45:35.478Z,4.72
2023-04-19T21:48:02.945Z,6.50
2023-04-19T21:50:30.413Z,5.10
2023-04-19T21:52:57.696Z,5.40
2023-04-19T21:55:25.170Z,5.55
2023-04-19T21:57:52.631Z,4.75
2023-04-19T22:00:20.106Z,5.50
2023-04-19T22:02:47.490Z,5.00
2023-04-19T22:05:14.868Z,5.75
2023-04-19T22:07:42.941Z,5.32
2023-04-19T22:10:11.854Z,4.88
2023-04-19T22:12:51.303Z,5.43
2023-04-19T22:15:25.943Z,3.92
2023-04-19T22:17:53.260Z,4.78
2023-04-19T22:20:21.171Z,4.50
2023-04-19T22:22:48.396Z,3.67
2023-04-19T22:25:15.730Z,4.25
2023-04-19T22:27:43.437Z,4.88
2023-04-19T22:30:11.280Z,4.70
2023-04-19T22:32:38.905Z,4.72
2023-04-19T22:35:07.397Z,4.75
2023-04-19T22:37:34.683Z,4.35
2023-04-19T22:40:02.075Z,4.22
2023-04-19T22:42:29.568Z,4.43
2023-04-19T22:44:56.804Z,3.92
2023-04-19T22:47:24.079Z,4.63
2023-04-19T22:49:51.333Z,4.07
2023-04-19T22:52:18.713Z,5.13
2023-04-19T22:54:46.032Z,4.40
2023-04-19T22:57:13.400Z,4.25
2023-04-19T22:59:40.663Z,4.68
2023-04-19T23:02:08.055Z,4.70
2023-04-19T23:04:35.549Z,4.65
2023-04-19T23:07:03.095Z,4.90
2023-04-19T23:09:30.503Z,4.70
2023-04-19T23:12:00.862Z,4.03
2023-04-19T23:14:29.228Z,5.15
2023-04-19T23:16:57.436Z,5.25
2023-04-19T23:19:25.362Z,5.28
2023-04-19T23:21:52.598Z,5.93
2023-04-19T23:24:19.835Z,4.90
2023-04-19T23:26:47.046Z,5.05
2023-04-19T23:29:14.590Z,4.32
2023-04-19T23:31:41.923Z,4.18
2023-04-19T23:34:09.235Z,4.70
2023-04-19T23:36:36.693Z,5.78
2023-04-19T23:39:05.049Z,4.75
2023-04-19T23:41:33.739Z,5.70
2023-04-19T23:44:01.060Z,5.07
2023-04-19T23:46:28.435Z,4.85
2023-04-19T23:48:55.810Z,4.43
2023-04-19T23:51:23.060Z,5.13
2023-04-19T23:53:50.604Z,5.13
2023-04-19T23:56:17.825Z,6.15
2023-04-19T23:58:45.089Z,5.70
